Time;durP1;ratioP1;P1;durP2;ratioP2;P2;SDS_P1;SDS_P2;PMS_P1;PMS_P2;Temp;Humidity;BMP_temperature;BMP_pressure;BME280_temperature;BME280_humidity;BME280_pressure;Samples;Min_cycle;Max_cycle;Signal;HPM_P1;HPM_P2
2023/09/29 10:59:07;;;;;;;9.10;7.20;;;;;;;28.68;40.23;98975.28;104478;1295;600048;-86
2023/09/29 11:01:37;;;;;;;6.80;5.90;;;;;;;28.90;39.06;98976.15;107543;1266;61061;-87
2023/09/29 11:04:07;;;;;;;8.50;5.90;;;;;;;29.10;38.74;98972.59;106578;1266;61070;-87
2023/09/29 11:06:45;;;;;;;13.80;7.00;;;;;;;29.30;38.08;98966.10;105912;1272;73544;-88
2023/09/29 11:09:19;;;;;;;9.20;5.60;;;;;;;29.51;37.56;98963.02;106518;1266;74535;-88
2023/09/29 11:11:48;;;;;;;7.30;6.10;;;;;;;29.72;37.12;98961.89;108279;1263;79055;-87
2023/09/29 11:14:16;;;;;;;9.00;6.20;;;;;;;29.94;36.58;98960.45;108263;1262;59649;-88
2023/09/29 11:16:58;;;;;;;7.20;5.90;;;;;;;30.11;36.35;98959.52;108424;1263;59092;-89
2023/09/29 11:19:30;;;;;;;7.40;5.70;;;;;;;30.26;36.11;98960.70;107449;1263;71235;-86
2023/09/29 11:22:02;;;;;;;7.70;5.80;;;;;;;30.39;35.63;98957.63;106993;1262;73118;-83
2023/09/29 11:24:40;;;;;;;6.40;5.30;;;;;;;30.50;35.28;98953.81;105488;1263;72394;-87
2023/09/29 11:27:08;;;;;;;9.40;5.80;;;;;;;30.62;34.87;98951.70;105284;1269;61316;-85
2023/09/29 11:29:35;;;;;;;6.20;5.60;;;;;;;30.76;34.48;98948.73;105164;1269;61179;-86
2023/09/29 11:32:04;;;;;;;13.70;6.10;;;;;;;30.92;33.79;98945.98;105377;1265;73028;-83
2023/09/29 11:34:32;;;;;;;10.20;6.40;;;;;;;31.10;33.90;98941.46;105275;1265;74871;-85
2023/09/29 11:36:59;;;;;;;7.20;6.20;;;;;;;31.29;33.81;98941.55;105278;1266;72879;-83
2023/09/29 11:39:27;;;;;;;6.00;5.30;;;;;;;31.46;33.08;98935.48;105319;1263;61204;-84
2023/09/29 11:41:54;;;;;;;8.40;6.00;;;;;;;31.62;32.74;98931.55;105249;1260;61074;-84
2023/09/29 11:44:21;;;;;;;8.50;6.60;;;;;;;31.77;32.56;98930.08;105286;1262;71814;-83
2023/09/29 11:46:48;;;;;;;6.80;5.00;;;;;;;31.94;32.03;98928.57;105308;1260;75651;-89
2023/09/29 11:49:16;;;;;;;9.50;5.10;;;;;;;32.09;31.57;98923.52;105253;1266;72786;-86
2023/09/29 11:51:43;;;;;;;9.50;6.10;;;;;;;32.22;31.30;98924.61;105182;1265;61955;-85
2023/09/29 11:54:10;;;;;;;6.60;5.90;;;;;;;32.31;31.09;98919.98;105593;1263;61154;-83
2023/09/29 11:56:38;;;;;;;6.60;5.90;;;;;;;32.38;30.85;98918.39;105459;1263;73412;-82
2023/09/29 11:59:05;;;;;;;12.10;6.60;;;;;;;32.49;30.75;98917.52;105363;1260;72748;-85
2023/09/29 12:01:32;;;;;;;6.20;5.70;;;;;;;32.62;30.48;98917.10;105370;1265;71512;-84
2023/09/29 12:03:59;;;;;;;6.40;5.20;;;;;;;32.74;30.01;98914.03;105252;1266;61145;-82
2023/09/29 12:06:27;;;;;;;4.70;4.30;;;;;;;32.85;29.99;98911.59;105305;1260;61086;-82
2023/09/29 12:08:54;;;;;;;6.90;4.70;;;;;;;32.92;29.02;98909.64;105404;1264;73942;-84
2023/09/29 12:11:22;;;;;;;5.90;5.30;;;;;;;32.98;29.25;98904.56;105198;1266;75673;-84
2023/09/29 12:13:49;;;;;;;7.40;5.80;;;;;;;33.01;29.02;98902.88;105127;1263;72988;-86
2023/09/29 12:16:16;;;;;;;6.10;4.90;;;;;;;32.99;29.25;98906.88;105275;1265;61135;-83
2023/09/29 12:18:43;;;;;;;5.70;5.20;;;;;;;32.93;29.17;98904.27;105350;1262;61269;-82
2023/09/29 12:21:10;;;;;;;5.40;4.80;;;;;;;32.82;29.41;98902.91;105271;1266;74105;-84
2023/09/29 12:23:42;;;;;;;5.10;4.50;;;;;;;32.69;29.19;98901.11;106635;1260;74899;-83
2023/09/29 12:26:09;;;;;;;5.50;5.00;;;;;;;32.53;29.42;98899.61;105714;1257;73559;-87
2023/09/29 12:28:36;;;;;;;7.50;4.60;;;;;;;32.35;29.03;98895.46;105631;1257;61159;-85
2023/09/29 12:31:19;;;;;;;19.70;4.40;;;;;;;32.15;28.83;98896.36;105592;1260;61221;-87
2023/09/29 12:33:46;;;;;;;7.00;4.70;;;;;;;32.03;29.95;98894.17;105972;1260;71896;-86
2023/09/29 12:36:13;;;;;;;9.70;6.60;;;;;;;32.02;30.81;98893.60;105529;1260;74925;-86
2023/09/29 12:38:41;;;;;;;14.70;9.70;;;;;;;32.07;31.11;98892.67;108424;1255;72628;-85
2023/09/29 12:41:08;;;;;;;7.00;6.30;;;;;;;32.12;30.73;98891.70;106023;1257;61061;-87
2023/09/29 12:43:35;;;;;;;9.30;5.90;;;;;;;32.07;30.10;98887.77;106185;1259;61153;-86
2023/09/29 12:46:02;;;;;;;9.10;6.80;;;;;;;31.95;30.09;98888.42;105577;1257;72974;-86
2023/09/29 12:48:30;;;;;;;6.60;6.00;;;;;;;31.86;31.19;98887.82;106080;1255;74328;-86
2023/09/29 12:50:57;;;;;;;8.90;7.10;;;;;;;31.90;31.19;98888.07;106196;1260;71415;-85
2023/09/29 12:53:25;;;;;;;6.00;5.50;;;;;;;32.04;30.61;98883.75;106266;1257;61138;-88
2023/09/29 12:55:52;;;;;;;7.10;6.00;;;;;;;32.21;30.61;98884.14;105945;1260;61271;-87
2023/09/29 12:58:20;;;;;;;5.40;4.90;;;;;;;32.40;29.94;98881.08;106500;1257;73063;-87
2023/09/29 13:00:47;;;;;;;7.30;6.00;;;;;;;32.62;30.37;98879.85;106248;1257;72775;-87
2023/09/29 13:03:14;;;;;;;5.90;5.40;;;;;;;32.87;29.34;98869.73;106252;1257;71656;-87
2023/09/29 13:05:41;;;;;;;6.50;5.30;;;;;;;33.05;28.08;98871.74;106869;1257;61042;-85
2023/09/29 13:08:10;;;;;;;5.70;5.10;;;;;;;33.21;27.98;98871.02;106458;1256;61658;-88
2023/09/29 13:10:38;;;;;;;7.00;5.90;;;;;;;33.37;27.83;98866.84;106894;1264;71823;-87
2023/09/29 13:13:05;;;;;;;6.90;5.90;;;;;;;33.51;27.44;98863.23;106582;1254;73958;-86
2023/09/29 13:15:33;;;;;;;8.60;6.50;;;;;;;33.56;27.32;98862.56;106019;1254;71677;-87
2023/09/29 13:18:00;;;;;;;9.70;5.90;;;;;;;33.55;27.77;98864.10;106165;1254;61045;-86
2023/09/29 13:20:28;;;;;;;7.90;5.80;;;;;;;33.57;27.45;98860.80;106299;1256;61064;-88
2023/09/29 13:22:55;;;;;;;7.60;5.40;;;;;;;33.53;27.62;98860.11;106052;1254;73070;-87
2023/09/29 13:25:23;;;;;;;7.40;6.40;;;;;;;33.48;27.99;98857.29;106355;1254;75234;-88
2023/09/29 13:27:52;;;;;;;5.60;5.00;;;;;;;33.44;27.76;98853.91;106554;1254;74028;-87
2023/09/29 13:30:20;;;;;;;11.20;6.30;;;;;;;33.39;27.45;98855.52;106298;1254;61090;-87
2023/09/29 13:32:47;;;;;;;9.50;5.20;;;;;;;33.34;28.44;98856.20;106516;1257;61334;-87
2023/09/29 13:35:14;;;;;;;5.90;5.20;;;;;;;33.24;28.61;98851.79;108609;1253;74393;-87
2023/09/29 13:37:42;;;;;;;8.70;5.50;;;;;;;33.25;29.47;98854.20;109189;1254;73216;-88
2023/09/29 13:40:10;;;;;;;6.10;4.90;;;;;;;33.33;29.70;98854.38;109215;1254;72413;-87
2023/09/29 13:42:38;;;;;;;6.50;5.70;;;;;;;33.52;29.18;98852.73;108522;1253;61129;-88
2023/09/29 13:45:06;;;;;;;7.10;5.80;;;;;;;33.76;29.05;98853.16;106673;1257;61096;-87
2023/09/29 13:47:35;;;;;;;8.50;5.90;;;;;;;34.02;28.68;98850.40;107596;1256;73583;-88
2023/09/29 13:50:04;;;;;;;6.60;5.10;;;;;;;34.29;28.48;98851.44;106919;1259;74314;-87
2023/09/29 13:52:32;;;;;;;9.70;5.50;;;;;;;34.53;27.72;98849.52;106781;1259;71309;-88
2023/09/29 13:54:59;;;;;;;7.40;5.20;;;;;;;34.75;27.87;98844.67;106273;1254;61189;-88
2023/09/29 13:57:26;;;;;;;8.20;5.40;;;;;;;34.87;27.44;98839.20;106073;1254;61687;-87
2023/09/29 13:59:53;;;;;;;10.10;5.30;;;;;;;34.89;26.34;98840.72;106304;1256;73117;-87
2023/09/29 14:02:27;;;;;;;9.30;5.10;;;;;;;34.64;26.04;98834.61;107016;1254;74663;-86
2023/09/29 14:05:05;;;;;;;16.70;7.10;;;;;;;34.18;26.55;98836.33;108016;1254;72850;-84
2023/09/29 14:07:32;;;;;;;27.20;9.00;;;;;;;33.72;27.05;98831.73;107920;1253;61048;-88
2023/09/29 14:09:59;;;;;;;32.00;7.90;;;;;;;33.30;27.91;98830.54;108366;1256;60940;-87
2023/09/29 14:12:27;;;;;;;11.50;5.80;;;;;;;32.99;28.23;98829.77;108564;1253;73069;-87
2023/09/29 14:14:54;;;;;;;13.70;5.30;;;;;;;32.85;28.87;98829.42;107295;1254;74349;-84
2023/09/29 14:17:21;;;;;;;7.10;5.30;;;;;;;32.87;29.49;98828.86;106400;1254;70543;-87
2023/09/29 14:19:49;;;;;;;5.50;4.80;;;;;;;33.01;29.31;98821.50;109210;1254;61205;-86
2023/09/29 14:22:16;;;;;;;7.30;4.70;;;;;;;33.19;29.03;98822.48;107446;1254;61147;-85
2023/09/29 14:24:43;;;;;;;7.20;5.20;;;;;;;33.35;28.86;98825.43;106583;1256;71818;-88
2023/09/29 14:27:10;;;;;;;13.40;5.70;;;;;;;33.51;28.70;98822.47;107551;1254;75173;-87
2023/09/29 14:29:37;;;;;;;9.20;5.20;;;;;;;33.51;28.26;98819.42;106231;1254;71988;-87
2023/09/29 14:32:04;;;;;;;11.30;5.90;;;;;;;33.55;27.75;98824.13;106317;1257;61048;-87
2023/09/29 14:34:32;;;;;;;11.10;6.90;;;;;;;33.52;28.48;98823.48;106293;1254;61113;-88
2023/09/29 14:36:59;;;;;;;12.90;6.70;;;;;;;33.47;28.78;98823.02;107094;1254;72593;-88
2023/09/29 14:39:26;;;;;;;12.20;6.10;;;;;;;33.41;29.20;98821.20;105866;1254;74398;-87
2023/09/29 14:41:53;;;;;;;13.80;6.70;;;;;;;33.40;29.49;98817.80;106073;1257;72371;-88
2023/09/29 14:44:20;;;;;;;14.30;6.40;;;;;;;33.41;29.51;98814.10;106211;1254;61697;-87
2023/09/29 14:46:47;;;;;;;26.10;5.40;;;;;;;33.41;29.54;98812.20;106016;1256;60910;-89
2023/09/29 14:49:16;;;;;;;5.60;5.10;;;;;;;33.41;29.73;98810.75;106255;1252;73796;-87
2023/09/29 14:51:45;;;;;;;10.00;6.20;;;;;;;33.40;29.89;98808.45;106045;1258;74546;-87
2023/09/29 14:54:13;;;;;;;8.80;5.70;;;;;;;33.36;30.17;98808.20;106029;1259;71578;-87
2023/09/29 14:56:40;;;;;;;14.40;5.80;;;;;;;33.32;30.40;98802.36;106198;1253;61499;-88
2023/09/29 14:59:07;;;;;;;15.50;5.80;;;;;;;33.28;31.33;98804.33;106782;1254;61104;-88
2023/09/29 15:01:35;;;;;;;13.70;6.10;;;;;;;33.24;31.73;98805.35;108498;1253;72413;-87
2023/09/29 15:04:02;;;;;;;17.30;6.60;;;;;;;33.15;31.97;98802.98;108238;1254;73606;-88
2023/09/29 15:06:30;;;;;;;12.10;6.20;;;;;;;32.98;32.17;98802.65;106533;1257;74134;-89
2023/09/29 15:08:57;;;;;;;15.40;6.70;;;;;;;32.68;32.55;98804.25;106767;1258;61176;-87
2023/09/29 15:11:24;;;;;;;11.30;6.50;;;;;;;32.30;33.44;98806.91;106283;1254;61157;-89
2023/09/29 15:13:51;;;;;;;18.70;8.80;;;;;;;31.91;34.27;98806.56;106111;1259;73935;-89
2023/09/29 15:16:20;;;;;;;14.40;8.70;;;;;;;31.53;34.57;98805.23;106185;1254;74348;-88
2023/09/29 15:18:51;;;;;;;26.70;10.70;;;;;;;31.11;35.75;98805.19;106769;1254;70697;-87
2023/09/29 15:21:18;;;;;;;27.90;16.40;;;;;;;30.70;36.54;98800.89;109076;1253;59322;-88
2023/09/29 15:23:53;;;;;;;25.80;16.10;;;;;;;30.32;37.17;98806.46;109153;1254;59869;-88
2023/09/29 15:26:26;;;;;;;23.40;14.80;;;;;;;29.91;38.35;98807.52;108199;1256;72096;-88
2023/09/29 15:28:55;;;;;;;96.70;28.00;;;;;;;29.54;39.38;98805.83;107817;1254;73115;-88
2023/09/29 15:31:28;;;;;;;59.40;28.70;;;;;;;29.19;40.28;98804.61;106367;1254;73051;-88
2023/09/29 15:33:55;;;;;;;39.60;24.20;;;;;;;28.87;40.95;98803.34;106686;1254;60995;-90
2023/09/29 15:36:30;;;;;;;41.10;24.60;;;;;;;28.56;41.97;98800.30;107183;1256;61099;-88
2023/09/29 15:38:57;;;;;;;33.50;23.00;;;;;;;28.26;42.93;98801.42;106831;1254;73532;-88
2023/09/29 15:41:24;;;;;;;58.40;39.40;;;;;;;28.00;43.75;98806.70;107549;1256;73145;-88
2023/09/29 15:43:52;;;;;;;46.90;31.00;;;;;;;27.75;44.23;98811.50;107414;1254;73815;-89
2023/09/29 15:46:19;;;;;;;51.00;34.00;;;;;;;27.51;45.07;98809.79;106469;1254;61080;-88
2023/09/29 15:48:48;;;;;;;40.70;27.10;;;;;;;27.27;45.08;98813.02;106971;1254;61048;-87
2023/09/29 15:51:17;;;;;;;29.70;20.20;;;;;;;27.04;45.62;98811.70;106350;1254;73887;-88
2023/09/29 15:53:44;;;;;;;32.20;21.30;;;;;;;26.82;46.21;98810.36;107051;1254;74279;-88
2023/09/29 15:56:11;;;;;;;39.60;24.20;;;;;;;26.63;47.41;98808.81;108262;1254;72436;-87
2023/09/29 15:58:40;;;;;;;44.10;23.00;;;;;;;26.44;48.30;98809.91;108955;1254;60433;-89
2023/09/29 16:01:09;;;;;;;34.90;21.50;;;;;;;26.26;49.00;98812.60;108542;1252;61093;-90
2023/09/29 16:03:36;;;;;;;31.40;22.30;;;;;;;26.09;49.52;98819.13;107229;1254;73753;-88
2023/09/29 16:06:04;;;;;;;41.80;33.20;;;;;;;25.93;50.00;98818.64;107700;1253;74442;-88
2023/09/29 16:08:36;;;;;;;26.50;19.00;;;;;;;25.75;49.76;98820.38;106643;1254;71242;-89
2023/09/29 16:11:04;;;;;;;30.40;17.60;;;;;;;25.57;51.11;98826.23;106146;1254;62347;-89
2023/09/29 16:13:35;;;;;;;36.90;18.60;;;;;;;25.41;52.64;98824.21;106423;1254;61151;-87
2023/09/29 16:16:06;;;;;;;32.80;18.60;;;;;;;25.26;53.62;98822.90;106942;1254;74206;-88
2023/09/29 16:18:43;;;;;;;29.10;19.30;;;;;;;25.10;54.32;98824.52;108105;1253;73223;-87
2023/09/29 16:21:16;;;;;;;32.00;19.40;;;;;;;24.95;54.80;98824.04;106806;1256;71818;-89
2023/09/29 16:23:43;;;;;;;17.80;11.90;;;;;;;24.81;55.12;98825.48;106804;1254;60985;-91
2023/09/29 16:26:12;;;;;;;18.80;12.90;;;;;;;24.68;54.21;98824.39;106618;1256;61199;-88
2023/09/29 16:28:40;;;;;;;33.50;19.10;;;;;;;24.55;53.97;98820.59;106317;1253;73696;-89
2023/09/29 16:31:16;;;;;;;24.50;15.80;;;;;;;24.44;55.07;98825.70;106058;1259;73596;-89
2023/09/29 16:33:44;;;;;;;31.20;20.40;;;;;;;24.33;55.66;98829.77;106357;1254;71201;-86
2023/09/29 16:36:18;;;;;;;42.70;21.10;;;;;;;24.22;56.58;98827.45;106143;1254;61636;-89
2023/09/29 16:38:47;;;;;;;26.80;19.00;;;;;;;24.10;57.24;98830.53;106485;1256;61100;-89
2023/09/29 16:41:27;;;;;;;26.40;18.00;;;;;;;23.97;57.55;98830.75;106263;1254;72790;-87
2023/09/29 16:43:55;;;;;;;23.50;15.80;;;;;;;23.82;58.26;98834.70;106190;1254;73128;-87
2023/09/29 16:46:23;;;;;;;30.20;17.10;;;;;;;23.68;59.02;98833.98;107571;1256;72636;-88
2023/09/29 16:48:52;;;;;;;36.60;21.80;;;;;;;23.54;59.89;98838.35;106854;1254;61178;-88
2023/09/29 16:51:20;;;;;;;34.60;19.90;;;;;;;23.41;60.63;98839.88;106139;1257;61164;-89
2023/09/29 16:53:48;;;;;;;39.10;21.30;;;;;;;23.26;61.47;98836.15;106094;1254;73645;-88
2023/09/29 16:56:16;;;;;;;40.20;24.70;;;;;;;23.11;61.83;98833.42;107552;1254;73984;-88
2023/09/29 16:58:43;;;;;;;47.90;29.80;;;;;;;22.96;62.46;98832.89;106073;1254;71242;-88
2023/09/29 17:01:12;;;;;;;37.40;28.50;;;;;;;22.82;63.28;98833.58;106812;1254;61051;-89
2023/09/29 17:03:39;;;;;;;38.40;25.60;;;;;;;22.69;63.75;98834.11;106540;1254;61042;-88
2023/09/29 17:06:06;;;;;;;53.30;34.10;;;;;;;22.58;64.52;98833.76;106057;1254;73565;-88
2023/09/29 17:08:34;;;;;;;54.50;34.30;;;;;;;22.46;65.06;98831.98;106569;1255;73305;-88
2023/09/29 17:11:13;;;;;;;49.20;32.50;;;;;;;22.34;65.52;98834.55;106023;1259;71796;-89
2023/09/29 17:13:41;;;;;;;58.90;33.60;;;;;;;22.21;66.00;98833.67;105999;1254;61075;-88
2023/09/29 17:16:10;;;;;;;36.30;24.40;;;;;;;22.09;66.37;98837.69;106607;1253;60761;-87
2023/09/29 17:18:38;;;;;;;32.70;19.00;;;;;;;21.97;66.39;98833.01;106010;1257;73562;-88
2023/09/29 17:21:08;;;;;;;22.60;17.60;;;;;;;21.84;66.18;98833.18;106184;1254;74496;-89
2023/09/29 17:23:40;;;;;;;22.40;17.30;;;;;;;21.71;66.17;98836.58;108670;1252;73942;-87
2023/09/29 17:26:47;;;;;;;31.20;20.00;;;;;;;21.56;66.49;98840.61;107593;1261;61446;-89
2023/09/29 17:29:15;;;;;;;16.90;13.50;;;;;;;21.45;66.48;98839.52;105697;1260;61082;-88
2023/09/29 17:31:42;;;;;;;22.30;15.10;;;;;;;21.36;66.51;98840.19;105635;1260;74537;-88
2023/09/29 17:34:10;;;;;;;23.30;14.40;;;;;;;21.23;66.83;98841.60;105552;1259;73840;-87
2023/09/29 17:36:37;;;;;;;31.20;18.30;;;;;;;21.12;66.90;98843.98;105829;1262;72659;-88
2023/09/29 17:39:04;;;;;;;17.90;13.20;;;;;;;21.02;67.23;98844.71;108617;1260;61076;-87
2023/09/29 17:41:31;;;;;;;12.70;11.40;;;;;;;20.92;66.63;98843.64;107125;1260;61103;-88
2023/09/29 17:43:58;;;;;;;14.80;11.10;;;;;;;20.86;65.61;98845.23;105760;1265;74782;-89
2023/09/29 17:46:26;;;;;;;13.30;11.50;;;;;;;20.79;65.09;98841.39;105748;1265;74011;-87
2023/09/29 17:48:54;;;;;;;14.00;12.10;;;;;;;20.74;65.14;98846.15;105689;1260;72621;-89
2023/09/29 17:51:22;;;;;;;13.20;10.30;;;;;;;20.66;64.90;98847.15;105567;1265;61127;-87
2023/09/29 17:53:50;;;;;;;19.40;11.70;;;;;;;20.58;64.59;98848.79;106033;1262;61260;-89
2023/09/29 17:56:17;;;;;;;14.70;11.00;;;;;;;20.52;64.42;98847.48;105315;1266;73110;-90
2023/09/29 17:58:44;;;;;;;14.10;12.00;;;;;;;20.45;64.50;98841.45;105474;1267;74470;-88
2023/09/29 18:01:11;;;;;;;12.00;10.50;;;;;;;20.38;65.03;98845.21;105827;1260;72633;-89
2023/09/29 18:03:40;;;;;;;45.00;25.40;;;;;;;20.32;65.33;98847.50;106144;1265;61392;-88
2023/09/29 18:06:08;;;;;;;30.50;21.80;;;;;;;20.26;66.40;98848.30;107344;1256;61090;-88
2023/09/29 18:08:36;;;;;;;17.90;11.60;;;;;;;20.20;66.86;98849.98;107778;1254;74953;-89
2023/09/29 18:11:04;;;;;;;42.70;25.20;;;;;;;20.13;66.46;98847.43;106726;1259;74225;-87
2023/09/29 18:13:31;;;;;;;53.40;42.10;;;;;;;20.08;67.27;98851.95;107035;1254;71493;-87
2023/09/29 18:15:59;;;;;;;97.00;70.40;;;;;;;20.04;68.16;98854.49;106553;1258;61795;-87
2023/09/29 18:18:29;;;;;;;79.50;59.00;;;;;;;20.00;69.50;98854.57;106669;1260;61294;-88
2023/09/29 18:20:59;;;;;;;29.30;24.30;;;;;;;19.95;70.24;98852.51;106244;1254;72280;-88
2023/09/29 18:23:30;;;;;;;31.70;26.80;;;;;;;19.90;68.46;98851.63;108100;1254;74139;-89
2023/09/29 18:26:00;;;;;;;19.20;15.90;;;;;;;19.85;67.79;98855.89;109335;1253;71279;-87
2023/09/29 18:28:28;;;;;;;47.80;34.00;;;;;;;19.81;67.76;98858.09;109103;1254;59332;-88
2023/09/29 18:30:55;;;;;;;37.00;26.30;;;;;;;19.78;68.93;98857.11;109319;1253;60895;-88
2023/09/29 18:33:23;;;;;;;40.70;31.10;;;;;;;19.75;69.66;98855.92;109357;1254;73421;-88
2023/09/29 18:35:51;;;;;;;29.20;22.00;;;;;;;19.73;70.72;98861.07;108842;1254;73111;-88
2023/09/29 18:38:18;;;;;;;42.20;32.70;;;;;;;19.69;70.57;98861.78;109193;1253;71386;-88
2023/09/29 18:40:45;;;;;;;48.10;40.20;;;;;;;19.64;71.25;98861.20;109425;1254;61106;-88
2023/09/29 18:43:14;;;;;;;57.90;42.20;;;;;;;19.59;71.92;98862.82;109360;1254;60521;-88
2023/09/29 18:45:41;;;;;;;48.30;37.60;;;;;;;19.55;72.42;98864.89;107189;1254;73688;-88
2023/09/29 18:48:09;;;;;;;54.10;40.30;;;;;;;19.49;72.87;98861.24;106450;1254;74351;-90
2023/09/29 18:50:36;;;;;;;22.20;15.50;;;;;;;19.43;72.71;98859.45;106372;1252;71575;-87
2023/09/29 18:53:05;;;;;;;30.80;23.80;;;;;;;19.36;71.55;98854.90;106353;1259;61167;-89
2023/09/29 18:55:33;;;;;;;37.20;31.00;;;;;;;19.29;71.76;98856.64;106545;1256;61324;-89
2023/09/29 18:58:01;;;;;;;46.70;34.50;;;;;;;19.22;72.64;98854.13;108633;1258;72279;-88
2023/09/29 19:00:32;;;;;;;37.00;30.40;;;;;;;19.15;73.53;98853.84;106451;1258;75177;-89
2023/09/29 19:03:00;;;;;;;33.80;28.30;;;;;;;19.09;74.01;98850.27;106759;1257;71302;-89
2023/09/29 19:05:27;;;;;;;36.60;28.70;;;;;;;19.04;74.36;98855.16;106882;1257;61990;-89
2023/09/29 19:07:55;;;;;;;45.20;30.80;;;;;;;19.00;74.55;98852.63;106490;1257;61120;-88
2023/09/29 19:10:22;;;;;;;48.50;38.40;;;;;;;18.95;74.67;98849.28;106614;1260;73713;-88
2023/09/29 19:12:54;;;;;;;73.10;49.90;;;;;;;18.92;74.78;98851.91;106492;1257;72933;-90
2023/09/29 19:15:22;;;;;;;72.60;59.50;;;;;;;18.89;74.94;98852.10;106751;1259;72592;-89
2023/09/29 19:17:50;;;;;;;83.80;66.60;;;;;;;18.86;74.97;98850.59;108955;1253;61180;-90
2023/09/29 19:20:17;;;;;;;75.80;58.00;;;;;;;18.82;75.20;98852.33;107434;1256;61147;-89
2023/09/29 19:22:44;;;;;;;60.60;47.50;;;;;;;18.78;75.09;98849.73;106563;1254;73834;-88
2023/09/29 19:25:11;;;;;;;54.50;42.80;;;;;;;18.75;75.18;98851.90;106438;1254;75612;-87
2023/09/29 19:27:38;;;;;;;43.30;35.40;;;;;;;18.71;75.28;98855.34;106923;1256;72468;-87
2023/09/29 19:30:06;;;;;;;37.30;30.60;;;;;;;18.67;75.22;98850.84;108226;1254;60815;-89
2023/09/29 19:32:35;;;;;;;36.30;27.60;;;;;;;18.63;75.09;98854.35;109059;1255;60866;-87
2023/09/29 19:35:04;;;;;;;36.70;28.70;;;;;;;18.59;74.94;98853.06;108508;1256;73773;-88
2023/09/29 19:37:32;;;;;;;34.60;30.70;;;;;;;18.55;75.09;98855.30;106330;1256;74105;-87
2023/09/29 19:40:00;;;;;;;38.20;27.50;;;;;;;18.49;75.23;98855.44;106495;1254;72500;-86
2023/09/29 19:42:28;;;;;;;38.30;31.80;;;;;;;18.44;75.42;98856.29;106426;1257;61115;-88
2023/09/29 19:44:55;;;;;;;40.00;32.40;;;;;;;18.39;75.44;98854.90;106154;1256;61173;-88
2023/09/29 19:47:24;;;;;;;36.20;27.00;;;;;;;18.34;75.64;98854.14;106139;1257;73531;-86
2023/09/29 19:49:52;;;;;;;29.80;25.40;;;;;;;18.29;75.85;98857.91;106453;1257;74447;-87
2023/09/29 19:52:19;;;;;;;38.10;30.70;;;;;;;18.23;75.93;98856.62;106017;1258;71187;-87
2023/09/29 19:54:47;;;;;;;41.40;31.00;;;;;;;18.19;76.01;98859.58;105952;1259;61886;-88
2023/09/29 19:57:15;;;;;;;60.90;43.20;;;;;;;18.15;75.99;98857.92;105919;1254;61176;-88
2023/09/29 19:59:44;;;;;;;64.40;53.70;;;;;;;18.12;76.03;98863.84;106131;1254;72047;-88
2023/09/29 20:02:13;;;;;;;74.40;60.50;;;;;;;18.08;76.10;98859.86;105995;1260;73426;-88
2023/09/29 20:04:40;;;;;;;80.10;62.90;;;;;;;18.03;76.18;98857.23;106460;1255;71978;-88
2023/09/29 20:07:08;;;;;;;80.40;64.70;;;;;;;17.99;76.29;98859.58;106562;1260;61128;-89
2023/09/29 20:09:35;;;;;;;48.20;38.70;;;;;;;17.95;76.30;98858.87;106246;1259;61195;-88
2023/09/29 20:12:04;;;;;;;42.10;33.20;;;;;;;17.92;76.31;98856.29;106521;1256;73879;-88
2023/09/29 20:14:32;;;;;;;27.30;22.20;;;;;;;17.88;76.40;98856.38;106283;1254;75013;-89
2023/09/29 20:17:00;;;;;;;20.90;16.60;;;;;;;17.85;76.38;98859.02;106172;1260;72342;-89
2023/09/29 20:19:27;;;;;;;19.00;15.30;;;;;;;17.82;76.30;98857.54;106101;1254;61077;-87
2023/09/29 20:21:54;;;;;;;20.40;16.00;;;;;;;17.77;76.25;98856.86;105905;1256;60342;-88
2023/09/29 20:24:21;;;;;;;17.40;14.80;;;;;;;17.70;76.38;98862.17;106304;1256;74544;-88
2023/09/29 20:26:51;;;;;;;19.70;15.80;;;;;;;17.62;76.42;98860.90;107027;1256;74342;-88
2023/09/29 20:29:21;;;;;;;17.90;14.60;;;;;;;17.54;76.70;98859.66;106011;1254;72468;-88
2023/09/29 20:31:48;;;;;;;16.00;13.60;;;;;;;17.48;76.82;98859.30;105917;1254;61244;-89
2023/09/29 20:34:15;;;;;;;15.60;13.10;;;;;;;17.42;76.90;98859.33;105994;1256;61753;-89
2023/09/29 20:36:45;;;;;;;18.20;13.00;;;;;;;17.35;76.82;98856.48;106019;1257;72807;-88
2023/09/29 20:39:13;;;;;;;14.10;12.70;;;;;;;17.29;76.98;98857.74;106122;1260;74277;-89
2023/09/29 20:41:40;;;;;;;15.50;13.70;;;;;;;17.23;77.00;98856.09;106346;1260;72579;-89
2023/09/29 20:44:08;;;;;;;13.20;11.80;;;;;;;17.17;76.92;98854.11;106416;1253;61332;-86
2023/09/29 20:46:35;;;;;;;19.50;13.40;;;;;;;17.11;77.18;98853.44;106804;1254;61267;-87
2023/09/29 20:49:03;;;;;;;17.50;12.70;;;;;;;17.05;77.42;98850.13;108053;1254;75535;-89
2023/09/29 20:51:30;;;;;;;17.10;12.20;;;;;;;17.00;77.52;98846.98;109323;1254;72928;-89
2023/09/29 20:53:58;;;;;;;13.00;11.50;;;;;;;16.95;77.65;98845.52;109250;1254;71932;-88
2023/09/29 20:56:26;;;;;;;14.10;11.60;;;;;;;16.91;77.97;98843.73;109223;1253;61983;-88
2023/09/29 20:58:54;;;;;;;13.80;12.30;;;;;;;16.87;78.30;98844.83;109312;1257;58752;-89
2023/09/29 21:01:21;;;;;;;13.80;11.50;;;;;;;16.83;78.46;98844.95;108592;1254;73700;-88
2023/09/29 21:03:49;;;;;;;14.40;11.50;;;;;;;16.79;78.64;98846.02;107591;1256;74122;-88
2023/09/29 21:06:19;;;;;;;14.40;13.10;;;;;;;16.75;78.78;98841.92;107427;1259;71444;-88
2023/09/29 21:08:46;;;;;;;13.40;12.20;;;;;;;16.72;78.81;98841.44;107302;1257;61111;-88
2023/09/29 21:11:14;;;;;;;14.70;11.80;;;;;;;16.68;78.83;98840.19;106953;1254;61078;-88
2023/09/29 21:13:41;;;;;;;14.20;11.80;;;;;;;16.62;78.88;98842.25;106067;1265;74324;-89
2023/09/29 21:16:09;;;;;;;14.40;11.80;;;;;;;16.60;78.86;98840.11;105979;1257;74688;-89
2023/09/29 21:18:36;;;;;;;13.80;12.10;;;;;;;16.58;78.91;98842.30;105988;1255;71809;-87
2023/09/29 21:21:03;;;;;;;13.20;11.80;;;;;;;16.57;78.88;98840.21;106347;1255;61118;-87
2023/09/29 21:23:30;;;;;;;14.80;12.60;;;;;;;16.55;78.58;98842.16;106109;1258;61642;-88
2023/09/29 21:25:57;;;;;;;17.60;15.30;;;;;;;16.53;78.85;98841.98;107234;1256;74993;-88
2023/09/29 21:28:24;;;;;;;21.30;19.20;;;;;;;16.49;78.70;98844.14;107002;1254;74390;-88
2023/09/29 21:30:52;;;;;;;26.10;22.90;;;;;;;16.46;78.75;98848.36;106633;1257;71298;-86
2023/09/29 21:33:19;;;;;;;29.00;25.80;;;;;;;16.42;78.81;98846.55;106511;1256;60927;-89
2023/09/29 21:35:47;;;;;;;32.40;27.20;;;;;;;16.38;78.90;98847.98;106638;1259;61082;-87
2023/09/29 21:38:14;;;;;;;26.80;22.60;;;;;;;16.32;79.00;98842.57;106511;1258;73768;-88
2023/09/29 21:40:41;;;;;;;25.00;22.10;;;;;;;16.26;79.23;98842.65;106426;1254;74377;-88
2023/09/29 21:43:08;;;;;;;28.80;24.00;;;;;;;16.22;79.47;98843.39;106448;1256;72470;-89
2023/09/29 21:45:35;;;;;;;31.00;27.70;;;;;;;16.19;79.52;98843.45;106354;1260;61482;-88
2023/09/29 21:48:03;;;;;;;37.30;33.20;;;;;;;16.16;79.54;98845.56;106686;1253;61067;-87
2023/09/29 21:50:30;;;;;;;39.60;35.20;;;;;;;16.12;79.78;98841.20;106624;1254;73721;-88
2023/09/29 21:52:57;;;;;;;36.80;33.00;;;;;;;16.08;79.80;98844.73;108325;1253;74495;-88
2023/09/29 21:55:24;;;;;;;36.80;31.10;;;;;;;16.06;79.87;98844.58;109250;1254;71219;-90
2023/09/29 21:57:52;;;;;;;30.00;26.70;;;;;;;16.04;79.72;98846.00;109301;1253;60564;-89
2023/09/29 22:00:25;;;;;;;24.30;21.60;;;;;;;16.03;79.47;98844.86;109322;1254;59172;-89
2023/09/29 22:02:53;;;;;;;20.60;18.50;;;;;;;16.01;79.59;98845.57;109314;1254;73067;-90
2023/09/29 22:05:20;;;;;;;21.00;18.90;;;;;;;15.99;79.45;98844.30;109146;1254;73059;-88
2023/09/29 22:07:48;;;;;;;17.40;15.60;;;;;;;15.96;79.37;98841.41;109182;1254;71594;-89
2023/09/29 22:10:16;;;;;;;18.00;15.20;;;;;;;15.95;79.41;98840.29;109181;1254;61026;-89
2023/09/29 22:12:43;;;;;;;20.60;18.50;;;;;;;15.93;79.21;98843.89;108352;1256;60497;-88
2023/09/29 22:15:15;;;;;;;24.40;20.70;;;;;;;15.89;79.06;98841.62;107226;1256;73770;-89
2023/09/29 22:17:43;;;;;;;24.10;17.40;;;;;;;15.85;79.19;98840.86;107594;1254;73738;-89